createdAt,value
2022-08-31T00:01:30.905Z,12.27
2022-08-31T00:04:01.675Z,11.60
2022-08-31T00:06:32.132Z,12.33
2022-08-31T00:09:00.222Z,11.73
2022-08-31T00:11:31.229Z,11.47
2022-08-31T00:14:05.780Z,11.47
2022-08-31T00:16:35.913Z,12.20
2022-08-31T00:19:04.036Z,11.90
2022-08-31T00:21:31.390Z,12.83
2022-08-31T00:23:59.803Z,12.20
2022-08-31T00:26:27.180Z,12.77
2022-08-31T00:28:55.144Z,12.93
2022-08-31T00:31:22.208Z,12.40
2022-08-31T00:33:52.593Z,12.67
2022-08-31T00:36:22.884Z,12.50
2022-08-31T00:38:51.160Z,13.03
2022-08-31T00:41:21.695Z,12.70
2022-08-31T00:43:51.130Z,13.03
2022-08-31T00:46:26.279Z,13.33
2022-08-31T00:49:16.733Z,12.80
2022-08-31T00:51:53.433Z,12.57
2022-08-31T00:54:26.522Z,12.73
2022-08-31T00:56:54.674Z,13.13
2022-08-31T00:59:22.931Z,12.47
2022-08-31T01:01:50.646Z,12.97
2022-08-31T01:04:19.352Z,13.40
2022-08-31T01:06:48.922Z,12.70
2022-08-31T01:09:17.120Z,14.27
2022-08-31T01:11:45.008Z,13.53
2022-08-31T01:14:12.622Z,13.37
2022-08-31T01:16:47.245Z,13.47
2022-08-31T01:19:37.175Z,13.60
2022-08-31T01:22:13.488Z,14.10
2022-08-31T01:24:44.504Z,13.80
2022-08-31T01:27:13.812Z,13.80
2022-08-31T01:29:42.693Z,14.70
2022-08-31T01:32:10.895Z,14.57
2022-08-31T01:34:37.809Z,12.83
2022-08-31T01:37:05.321Z,13.70
2022-08-31T01:39:32.715Z,14.07
2022-08-31T01:41:59.879Z,13.50
2022-08-31T01:44:27.775Z,13.23
2022-08-31T01:46:56.095Z,12.90
2022-08-31T01:49:24.504Z,13.33
2022-08-31T01:51:52.989Z,13.30
2022-08-31T01:54:22.435Z,13.47
2022-08-31T01:56:50.998Z,13.77
2022-08-31T01:59:25.125Z,14.33
2022-08-31T02:02:20.436Z,13.53
2022-08-31T02:04:47.828Z,13.93
2022-08-31T02:07:14.649Z,14.60
2022-08-31T02:09:41.520Z,13.67
2022-08-31T02:12:08.850Z,13.80
2022-08-31T02:14:40.919Z,14.23
2022-08-31T02:17:09.947Z,14.23
2022-08-31T02:19:37.600Z,14.23
2022-08-31T02:22:04.513Z,14.10
2022-08-31T02:24:31.884Z,13.63
2022-08-31T02:26:59.549Z,13.60
2022-08-31T02:29:27.591Z,13.73
2022-08-31T02:31:57.221Z,12.77
2022-08-31T02:34:25.387Z,13.37
2022-08-31T02:36:53.366Z,14.10
2022-08-31T02:39:21.800Z,14.40
2022-08-31T02:41:51.210Z,13.17
2022-08-31T02:44:20.883Z,14.17
2022-08-31T02:46:48.561Z,13.70
2022-08-31T02:49:40.059Z,14.07
2022-08-31T02:52:08.124Z,14.20
2022-08-31T02:54:35.753Z,14.37
2022-08-31T02:57:03.281Z,13.93
2022-08-31T02:59:30.400Z,13.80
2022-08-31T03:01:58.336Z,14.80
2022-08-31T03:04:25.607Z,13.90
2022-08-31T03:06:52.931Z,14.27
2022-08-31T03:09:19.971Z,14.67
2022-08-31T03:11:46.872Z,14.77
2022-08-31T03:14:16.076Z,14.33
2022-08-31T03:16:44.092Z,13.63
2022-08-31T03:19:11.011Z,14.67
2022-08-31T03:21:38.207Z,14.60
2022-08-31T03:24:06.181Z,15.33
2022-08-31T03:29:49.612Z,13.60
2022-08-31T03:32:19.946Z,13.57
2022-08-31T03:34:54.213Z,13.30
2022-08-31T03:37:21.775Z,13.17
2022-08-31T03:39:51.610Z,13.07
2022-08-31T03:42:20.093Z,13.80
2022-08-31T03:44:48.395Z,13.63
2022-08-31T03:47:24.289Z,13.50
2022-08-31T03:49:56.202Z,13.23
2022-08-31T03:52:26.859Z,12.73
2022-08-31T03:55:02.827Z,14.00
2022-08-31T03:57:30.236Z,12.87
2022-08-31T03:59:58.021Z,14.67
2022-08-31T04:02:41.058Z,14.53
2022-08-31T04:05:29.506Z,13.63
2022-08-31T04:08:19.912Z,13.67
2022-08-31T04:11:37.174Z,14.03
2022-08-31T04:14:29.951Z,14.27
2022-08-31T04:17:26.373Z,14.17
2022-08-31T04:20:07.868Z,13.60
2022-08-31T04:22:43.748Z,14.10
2022-08-31T04:25:28.690Z,13.73
2022-08-31T04:27:56.696Z,12.87
2022-08-31T04:30:26.962Z,13.93
2022-08-31T04:32:54.334Z,13.60
2022-08-31T04:35:22.505Z,13.40
2022-08-31T04:37:50.113Z,13.57
2022-08-31T04:40:20.025Z,13.30
2022-08-31T04:42:48.671Z,14.33
2022-08-31T04:45:19.602Z,14.00
2022-08-31T04:47:49.820Z,14.60
2022-08-31T04:50:16.772Z,13.07
2022-08-31T04:53:04.901Z,14.20
2022-08-31T04:55:32.073Z,14.07
2022-08-31T04:57:59.439Z,14.07
2022-08-31T05:00:26.929Z,13.23
2022-08-31T05:03:12.876Z,14.00
2022-08-31T05:05:41.489Z,14.80
2022-08-31T05:08:08.732Z,14.80
2022-08-31T05:10:36.026Z,13.47
2022-08-31T05:13:05.186Z,13.20
2022-08-31T05:15:33.310Z,14.40
2022-08-31T05:18:00.934Z,15.23
2022-08-31T05:20:30.720Z,13.57
2022-08-31T05:22:57.577Z,14.60
2022-08-31T05:25:24.711Z,14.63
2022-08-31T05:27:54.185Z,13.33
2022-08-31T05:30:22.584Z,13.43
2022-08-31T05:33:05.842Z,14.60
2022-08-31T05:35:35.523Z,14.50
2022-08-31T05:38:06.319Z,14.10
2022-08-31T05:40:33.203Z,13.87
2022-08-31T05:43:00.244Z,13.63
2022-08-31T05:45:27.577Z,15.07
2022-08-31T05:47:55.902Z,14.17
2022-08-31T05:50:23.350Z,14.40
2022-08-31T05:52:50.308Z,14.73
2022-08-31T05:55:17.413Z,14.60
2022-08-31T05:57:44.431Z,15.77
2022-08-31T06:00:12.907Z,15.43
2022-08-31T06:02:45.429Z,15.33
2022-08-31T06:05:13.897Z,16.10
2022-08-31T06:07:42.611Z,15.07
2022-08-31T06:10:14.834Z,14.93
2022-08-31T06:12:44.376Z,15.17
2022-08-31T06:15:12.370Z,14.17
2022-08-31T06:17:40.703Z,15.50
2022-08-31T06:20:13.010Z,14.83
2022-08-31T06:22:46.707Z,15.17
2022-08-31T06:25:23.589Z,15.27
2022-08-31T06:27:53.308Z,14.00
2022-08-31T06:30:23.034Z,14.03
2022-08-31T06:32:50.921Z,14.97
2022-08-31T06:35:25.411Z,14.00
2022-08-31T06:38:25.082Z,14.47
2022-08-31T06:41:15.807Z,14.77
2022-08-31T06:44:06.527Z,14.77
2022-08-31T06:46:46.543Z,14.47
2022-08-31T06:49:23.831Z,13.50
2022-08-31T06:51:53.365Z,13.63
2022-08-31T06:54:36.000Z,13.90
2022-08-31T06:57:35.568Z,12.77
2022-08-31T07:00:22.902Z,12.07
2022-08-31T07:03:23.148Z,11.90
2022-08-31T07:05:53.085Z,12.57
2022-08-31T07:08:21.346Z,12.23
2022-08-31T07:10:55.241Z,11.97
2022-08-31T07:13:22.097Z,11.73
2022-08-31T07:15:49.039Z,12.07
2022-08-31T07:18:16.667Z,11.27
2022-08-31T07:20:44.065Z,11.10
2022-08-31T07:23:14.077Z,11.77
2022-08-31T07:25:50.180Z,10.93
2022-08-31T07:28:17.118Z,11.30
2022-08-31T07:30:44.716Z,10.67
2022-08-31T07:33:16.800Z,10.53
2022-08-31T07:35:49.396Z,11.43
2022-08-31T07:38:50.879Z,11.13
2022-08-31T07:41:36.840Z,10.57
2022-08-31T07:44:04.430Z,11.07
2022-08-31T07:46:32.153Z,11.67
2022-08-31T07:49:01.308Z,11.37
2022-08-31T07:52:06.978Z,12.10
2022-08-31T07:55:09.416Z,12.40
2022-08-31T07:57:59.575Z,11.97
2022-08-31T08:00:29.847Z,11.40
2022-08-31T08:03:01.660Z,10.50
2022-08-31T08:05:32.775Z,10.87
2022-08-31T08:08:36.967Z,11.20
2022-08-31T08:11:36.950Z,11.03
2022-08-31T08:14:23.261Z,10.30
2022-08-31T08:17:05.699Z,11.80
2022-08-31T08:19:39.299Z,11.00
2022-08-31T08:22:06.187Z,11.03
2022-08-31T08:24:56.248Z,10.70
2022-08-31T08:27:46.567Z,10.37
2022-08-31T08:30:30.743Z,11.60
2022-08-31T08:33:01.262Z,11.57
2022-08-31T08:35:32.628Z,14.00
2022-08-31T08:38:02.292Z,10.93
2022-08-31T08:40:39.458Z,11.30
2022-08-31T08:43:06.425Z,12.67
2022-08-31T08:45:33.909Z,11.17
2022-08-31T08:48:06.871Z,11.57
2022-08-31T08:50:34.124Z,11.07
2022-08-31T08:53:05.324Z,10.80
2022-08-31T08:55:38.085Z,10.20
2022-08-31T08:58:09.377Z,10.30
2022-08-31T09:00:46.375Z,11.47
2022-08-31T09:03:42.230Z,11.90
2022-08-31T09:07:23.112Z,9.93
2022-08-31T09:10:11.953Z,11.00
2022-08-31T09:12:49.045Z,11.03
2022-08-31T09:15:55.586Z,11.40
2022-08-31T09:18:44.134Z,12.50
2022-08-31T09:21:23.610Z,10.63
2022-08-31T09:24:03.169Z,10.57
2022-08-31T09:26:54.414Z,11.47
2022-08-31T09:29:33.107Z,11.43
2022-08-31T09:32:07.080Z,11.07
2022-08-31T09:34:37.562Z,10.33
2022-08-31T09:37:23.483Z,10.63
2022-08-31T09:39:52.742Z,10.20
2022-08-31T09:42:29.160Z,13.73
2022-08-31T09:45:00.114Z,10.07
2022-08-31T09:47:48.243Z,9.27
2022-08-31T09:50:46.077Z,9.43
2022-08-31T09:53:31.447Z,9.53
2022-08-31T09:56:22.756Z,9.50
2022-08-31T09:58:51.125Z,10.97
2022-08-31T10:01:20.208Z,10.57
2022-08-31T10:03:48.384Z,11.50
2022-08-31T10:06:48.245Z,11.57
2022-08-31T10:09:26.516Z,9.43
2022-08-31T10:11:57.790Z,10.13
2022-08-31T10:14:41.180Z,10.70
2022-08-31T10:17:19.045Z,10.13
2022-08-31T10:19:58.420Z,9.53
2022-08-31T10:22:34.235Z,9.70
2022-08-31T10:25:12.726Z,9.40
2022-08-31T10:27:48.688Z,9.67
2022-08-31T10:30:38.920Z,9.80
2022-08-31T10:33:11.423Z,10.07
2022-08-31T10:35:58.334Z,10.67
2022-08-31T10:38:35.264Z,10.40
2022-08-31T10:41:17.556Z,9.40
2022-08-31T10:43:53.604Z,8.83
2022-08-31T10:46:21.024Z,8.90
2022-08-31T10:48:54.391Z,10.13
2022-08-31T10:51:39.801Z,9.83
2022-08-31T10:54:45.094Z,11.57
2022-08-31T10:57:19.437Z,11.30
2022-08-31T11:00:07.777Z,12.60
2022-08-31T11:03:06.043Z,12.40
2022-08-31T11:05:59.245Z,11.40
2022-08-31T11:08:32.581Z,12.97
2022-08-31T11:11:01.617Z,15.20
2022-08-31T11:14:00.842Z,19.17
2022-08-31T11:16:30.748Z,19.60
2022-08-31T11:19:19.308Z,17.77
2022-08-31T11:21:56.361Z,15.60
2022-08-31T11:24:39.039Z,16.03
2022-08-31T11:27:14.606Z,17.20
2022-08-31T11:30:07.902Z,14.50
2022-08-31T11:32:50.950Z,13.73
2022-08-31T11:35:48.064Z,14.47
2022-08-31T11:38:58.507Z,17.07
2022-08-31T11:41:35.415Z,13.63
2022-08-31T11:44:05.315Z,13.17
2022-08-31T11:46:39.783Z,13.70
2022-08-31T11:49:11.239Z,13.27
2022-08-31T11:51:41.978Z,11.33
2022-08-31T11:54:14.617Z,13.73
2022-08-31T11:56:50.111Z,13.93
2022-08-31T11:59:23.391Z,12.90
2022-08-31T12:01:50.450Z,13.33
2022-08-31T12:04:46.820Z,13.03
2022-08-31T12:07:26.552Z,11.13
2022-08-31T12:10:07.074Z,13.23
2022-08-31T12:12:45.915Z,10.67
2022-08-31T12:15:13.184Z,10.10
2022-08-31T12:18:11.389Z,9.67
2022-08-31T12:21:14.316Z,10.37
2022-08-31T12:24:07.737Z,10.23
2022-08-31T12:27:04.876Z,11.50
2022-08-31T12:29:34.448Z,12.13
2022-08-31T12:32:10.897Z,10.47
2022-08-31T12:34:44.987Z,10.60
2022-08-31T12:37:39.278Z,10.47
2022-08-31T12:40:20.508Z,13.17
2022-08-31T12:43:09.221Z,13.63
2022-08-31T12:46:07.216Z,15.40
2022-08-31T12:48:55.134Z,27.53
2022-08-31T12:51:34.493Z,12.63
2022-08-31T12:54:32.869Z,14.37
2022-08-31T12:57:29.083Z,15.00
2022-08-31T13:00:13.336Z,10.50
2022-08-31T13:02:44.291Z,12.63
2022-08-31T13:05:27.445Z,12.47
2022-08-31T13:07:54.943Z,12.37
2022-08-31T13:10:30.463Z,12.83
2022-08-31T13:13:01.661Z,11.57
2022-08-31T13:15:48.974Z,11.93
2022-08-31T13:18:27.503Z,18.50
2022-08-31T13:21:02.300Z,11.40
2022-08-31T13:23:43.296Z,12.30
2022-08-31T13:26:25.350Z,11.73
2022-08-31T13:28:58.832Z,9.70
2022-08-31T13:31:33.184Z,11.73
2022-08-31T13:34:03.534Z,11.70
2022-08-31T13:36:34.580Z,11.00
2022-08-31T13:39:16.451Z,10.43
2022-08-31T13:42:06.029Z,11.53
2022-08-31T13:44:39.240Z,10.30
2022-08-31T13:47:19.971Z,11.27
2022-08-31T13:49:49.543Z,11.90
2022-08-31T13:52:27.236Z,13.27
2022-08-31T13:55:10.638Z,11.67
2022-08-31T13:57:38.904Z,12.60
2022-08-31T14:00:44.632Z,12.97
2022-08-31T14:03:42.413Z,12.23
2022-08-31T14:06:26.158Z,13.90
2022-08-31T14:09:17.813Z,13.87
2022-08-31T14:11:54.138Z,11.63
2022-08-31T14:14:26.911Z,15.00
2022-08-31T14:16:57.647Z,16.70
2022-08-31T14:19:33.685Z,12.57
2022-08-31T14:22:30.596Z,15.13
2022-08-31T14:25:00.513Z,13.03
2022-08-31T14:27:29.573Z,13.90
2022-08-31T14:29:58.252Z,13.10
2022-08-31T14:32:29.046Z,11.97
2022-08-31T14:34:57.913Z,14.20
2022-08-31T14:37:28.796Z,14.33
2022-08-31T14:40:07.170Z,17.77
2022-08-31T14:42:37.897Z,17.77
2022-08-31T14:45:18.269Z,13.80
2022-08-31T14:47:47.573Z,12.47
2022-08-31T14:50:20.117Z,12.47
2022-08-31T14:52:52.974Z,13.53
2022-08-31T14:55:22.421Z,13.37
2022-08-31T14:57:57.965Z,14.13
2022-08-31T15:00:26.435Z,12.67
2022-08-31T15:02:54.059Z,12.57
2022-08-31T15:05:24.919Z,14.40
2022-08-31T15:07:54.254Z,17.17
2022-08-31T15:10:25.796Z,14.33
2022-08-31T15:12:53.621Z,12.97
2022-08-31T15:15:23.852Z,13.23
2022-08-31T15:17:51.627Z,13.20
2022-08-31T15:20:21.026Z,13.13
2022-08-31T15:22:48.417Z,14.57
2022-08-31T15:25:17.042Z,14.63
2022-08-31T15:27:44.443Z,13.33
2022-08-31T15:30:14.808Z,13.73
2022-08-31T15:32:48.790Z,15.23
2022-08-31T15:35:20.181Z,15.30
2022-08-31T15:38:01.258Z,14.70
2022-08-31T15:40:38.126Z,14.20
2022-08-31T15:43:09.534Z,12.73
2022-08-31T15:45:36.807Z,15.67
2022-08-31T15:48:22.816Z,15.37
2022-08-31T15:50:53.753Z,14.87
2022-08-31T15:53:27.307Z,15.23
2022-08-31T15:55:54.269Z,14.07
2022-08-31T15:58:25.263Z,13.60
2022-08-31T16:00:52.409Z,16.90
2022-08-31T16:03:19.501Z,15.63
2022-08-31T16:05:47.093Z,16.73
2022-08-31T16:08:14.420Z,15.23
2022-08-31T16:10:48.912Z,16.37
2022-08-31T16:13:16.499Z,16.47
2022-08-31T16:15:50.968Z,17.07
2022-08-31T16:18:23.218Z,15.23
2022-08-31T16:20:52.005Z,12.43
2022-08-31T16:23:20.153Z,12.00
2022-08-31T16:25:48.691Z,26.97
2022-08-31T16:28:18.587Z,9.37
2022-08-31T16:30:45.614Z,8.97
2022-08-31T16:33:12.428Z,9.77
2022-08-31T16:35:40.379Z,9.63
2022-08-31T16:38:10.309Z,9.50
2022-08-31T16:40:37.519Z,9.27
2022-08-31T16:43:05.476Z,11.27
2022-08-31T16:45:32.798Z,9.67
2022-08-31T16:48:18.361Z,9.87
2022-08-31T16:50:50.036Z,10.37
2022-08-31T16:53:18.283Z,10.20
2022-08-31T16:55:48.485Z,9.33
2022-08-31T16:58:25.109Z,10.10
2022-08-31T17:01:13.816Z,9.87
2022-08-31T17:03:56.517Z,10.57
2022-08-31T17:06:25.393Z,10.47
2022-08-31T17:08:54.462Z,10.60
2022-08-31T17:11:31.191Z,25.50
2022-08-31T17:14:00.883Z,12.93
2022-08-31T17:16:30.460Z,12.77
2022-08-31T17:18:59.309Z,11.73
2022-08-31T17:21:29.539Z,11.67
2022-08-31T17:23:58.749Z,10.73
2022-08-31T17:26:31.123Z,10.60
2022-08-31T17:29:03.972Z,18.07
2022-08-31T17:31:35.012Z,55.13
2022-08-31T17:34:02.642Z,14.17
2022-08-31T17:36:36.545Z,11.20
2022-08-31T17:39:04.806Z,10.60
2022-08-31T17:41:32.047Z,10.23
2022-08-31T17:44:00.025Z,9.93
2022-08-31T17:46:27.721Z,11.30
2022-08-31T17:48:56.100Z,10.73
2022-08-31T17:51:29.196Z,9.70
2022-08-31T17:54:12.574Z,10.43
2022-08-31T17:56:48.280Z,11.00
2022-08-31T17:59:22.071Z,12.25
2022-08-31T18:01:52.306Z,10.07
2022-08-31T18:04:21.233Z,10.90
2022-08-31T18:06:51.494Z,10.80
2022-08-31T18:09:20.782Z,10.80
2022-08-31T18:11:50.901Z,10.57
2022-08-31T18:14:23.763Z,10.90
2022-08-31T18:16:52.659Z,10.27
2022-08-31T18:19:27.452Z,10.70
2022-08-31T18:21:55.919Z,10.57
2022-08-31T18:24:23.762Z,11.70
2022-08-31T18:26:52.364Z,11.40
2022-08-31T18:29:24.876Z,11.87
2022-08-31T18:31:53.885Z,11.87
2022-08-31T18:34:23.491Z,12.60
2022-08-31T18:36:53.402Z,12.13
2022-08-31T18:39:41.094Z,12.47
2022-08-31T18:42:28.833Z,12.53
2022-08-31T18:45:14.203Z,13.20
2022-08-31T18:47:41.160Z,12.40
2022-08-31T18:50:08.673Z,13.13
2022-08-31T18:52:39.134Z,13.33
2022-08-31T18:55:10.604Z,13.57
2022-08-31T18:57:48.644Z,13.33
2022-08-31T19:00:18.207Z,14.17
2022-08-31T19:02:45.340Z,14.63
2022-08-31T19:05:14.543Z,14.53
2022-08-31T19:07:42.255Z,14.63
2022-08-31T19:10:13.120Z,14.03
2022-08-31T19:12:42.562Z,14.83
2022-08-31T19:15:11.162Z,14.67
2022-08-31T19:17:40.052Z,16.03
2022-08-31T19:20:10.315Z,15.47
2022-08-31T19:22:38.614Z,15.67
2022-08-31T19:25:07.998Z,14.60
2022-08-31T19:27:35.173Z,14.00
2022-08-31T19:30:05.812Z,15.03
2022-08-31T19:32:33.600Z,16.00
2022-08-31T19:35:00.365Z,16.37
2022-08-31T19:37:27.707Z,16.63
2022-08-31T19:39:54.530Z,17.37
2022-08-31T19:42:39.687Z,17.10
2022-08-31T19:45:24.358Z,19.87
2022-08-31T19:47:52.021Z,17.67
2022-08-31T19:50:19.558Z,16.30
2022-08-31T19:52:47.064Z,16.93
2022-08-31T19:55:14.693Z,16.63
2022-08-31T19:57:43.230Z,17.60
2022-08-31T20:00:14.731Z,16.77
2022-08-31T20:02:44.566Z,17.03
2022-08-31T20:05:12.107Z,17.20
2022-08-31T20:07:41.430Z,17.53
2022-08-31T20:10:11.089Z,19.13
2022-08-31T20:12:39.739Z,18.67
2022-08-31T20:15:07.086Z,18.63
2022-08-31T20:17:35.194Z,19.10
2022-08-31T20:20:02.970Z,21.10
2022-08-31T20:22:30.071Z,19.50
2022-08-31T20:25:00.709Z,21.70
2022-08-31T20:27:28.089Z,20.80
2022-08-31T20:29:56.488Z,21.97
2022-08-31T20:32:26.308Z,23.13
2022-08-31T20:34:56.117Z,19.97
2022-08-31T20:37:25.211Z,20.10
2022-08-31T20:39:52.103Z,19.10
2022-08-31T20:42:22.610Z,21.47
2022-08-31T20:44:49.455Z,21.73
2022-08-31T20:47:34.877Z,22.90
2022-08-31T20:50:03.670Z,21.33
2022-08-31T20:52:32.793Z,20.37
2022-08-31T20:55:02.723Z,21.70
2022-08-31T20:57:32.173Z,23.53
2022-08-31T21:00:06.474Z,20.80
2022-08-31T21:02:34.600Z,21.63
2022-08-31T21:05:20.675Z,23.20
2022-08-31T21:07:49.308Z,22.03
2022-08-31T21:10:16.223Z,22.10
2022-08-31T21:12:50.822Z,21.73
2022-08-31T21:15:22.454Z,22.13
2022-08-31T21:17:57.195Z,21.87
2022-08-31T21:20:26.104Z,22.30
2022-08-31T21:22:53.811Z,20.53
2022-08-31T21:25:20.996Z,21.53
2022-08-31T21:27:50.452Z,21.10
2022-08-31T21:30:18.695Z,20.63
2022-08-31T21:32:46.799Z,19.97
2022-08-31T21:35:18.012Z,19.40
2022-08-31T21:37:48.137Z,18.47
2022-08-31T21:40:15.218Z,18.83
2022-08-31T21:42:42.081Z,18.77
2022-08-31T21:45:10.687Z,18.97
2022-08-31T21:47:37.527Z,18.97
2022-08-31T21:50:05.033Z,18.67
2022-08-31T21:52:31.878Z,18.50
2022-08-31T21:54:58.692Z,18.00
2022-08-31T21:57:25.668Z,18.47
2022-08-31T21:59:52.584Z,18.33
2022-08-31T22:02:19.404Z,19.07
2022-08-31T22:04:47.687Z,18.97
2022-08-31T22:07:14.880Z,19.33
2022-08-31T22:09:45.100Z,20.30
2022-08-31T22:12:12.774Z,19.27
2022-08-31T22:14:41.176Z,21.10
2022-08-31T22:17:09.498Z,18.23
2022-08-31T22:19:39.285Z,19.77
2022-08-31T22:22:12.078Z,20.97
2022-08-31T22:24:57.847Z,20.50
2022-08-31T22:27:24.684Z,20.37
2022-08-31T22:29:52.629Z,20.63
2022-08-31T22:32:19.601Z,18.80
2022-08-31T22:34:46.487Z,19.97
2022-08-31T22:37:14.369Z,18.90
2022-08-31T22:39:42.694Z,17.60
2022-08-31T22:42:11.853Z,17.63
2022-08-31T22:44:40.369Z,17.93
2022-08-31T22:47:07.555Z,17.47
2022-08-31T22:49:34.517Z,18.70
2022-08-31T22:52:01.468Z,17.07
2022-08-31T22:54:28.444Z,17.97
2022-08-31T22:56:55.372Z,17.67
2022-08-31T22:59:28.057Z,17.53
2022-08-31T23:01:59.166Z,18.20
2022-08-31T23:04:28.082Z,19.90
2022-08-31T23:06:57.633Z,20.00
2022-08-31T23:09:27.873Z,18.83
2022-08-31T23:11:57.076Z,20.50
2022-08-31T23:14:24.471Z,20.53
2022-08-31T23:16:59.214Z,20.23
2022-08-31T23:19:33.466Z,18.97
2022-08-31T23:22:01.803Z,19.17
2022-08-31T23:24:45.188Z,21.83
2022-08-31T23:27:13.628Z,23.60
2022-08-31T23:29:47.625Z,23.17
2022-08-31T23:32:17.456Z,23.13
2022-08-31T23:34:44.865Z,22.13
2022-08-31T23:37:11.986Z,24.07
2022-08-31T23:39:43.665Z,23.37
2022-08-31T23:42:13.263Z,25.43
2022-08-31T23:44:44.400Z,25.13
2022-08-31T23:47:15.456Z,26.33
2022-08-31T23:49:43.779Z,26.77
2022-08-31T23:52:18.740Z,26.20
2022-08-31T23:54:47.924Z,26.37
2022-08-31T23:57:32.290Z,27.87
